sensor_id;sensor_type;location;lat;lon;timestamp;temperature;humidity
10459;DHT22;5277;48.722;8.736;2023-04-03T00:01:37;5.40;99.90
10459;DHT22;5277;48.722;8.736;2023-04-03T00:04:04;5.30;99.90
10459;DHT22;5277;48.722;8.736;2023-04-03T00:06:30;5.40;99.90
10459;DHT22;5277;48.722;8.736;2023-04-03T00:08:56;5.40;99.90
10459;DHT22;5277;48.722;8.736;2023-04-03T00:11:22;5.40;99.90
10459;DHT22;5277;48.722;8.736;2023-04-03T00:13:47;5.40;99.90
10459;DHT22;5277;48.722;8.736;2023-04-03T00:16:13;5.40;99.90
10459;DHT22;5277;48.722;8.736;2023-04-03T00:18:39;5.40;99.90
10459;DHT22;5277;48.722;8.736;2023-04-03T00:21:06;5.30;99.90
10459;DHT22;5277;48.722;8.736;2023-04-03T00:23:32;5.40;99.90
10459;DHT22;5277;48.722;8.736;2023-04-03T00:25:57;5.40;99.90
10459;DHT22;5277;48.722;8.736;2023-04-03T00:28:23;5.40;99.90
10459;DHT22;5277;48.722;8.736;2023-04-03T00:30:50;5.40;99.90
10459;DHT22;5277;48.722;8.736;2023-04-03T00:33:16;5.40;99.90
10459;DHT22;5277;48.722;8.736;2023-04-03T00:35:42;5.40;99.90
10459;DHT22;5277;48.722;8.736;2023-04-03T00:38:08;5.40;99.90
10459;DHT22;5277;48.722;8.736;2023-04-03T00:40:39;5.50;99.90
10459;DHT22;5277;48.722;8.736;2023-04-03T00:43:19;5.50;99.90
10459;DHT22;5277;48.722;8.736;2023-04-03T00:45:48;5.40;99.90
10459;DHT22;5277;48.722;8.736;2023-04-03T00:48:20;5.40;99.90
10459;DHT22;5277;48.722;8.736;2023-04-03T00:50:48;5.40;99.90
10459;DHT22;5277;48.722;8.736;2023-04-03T00:53:19;5.40;99.90
10459;DHT22;5277;48.722;8.736;2023-04-03T00:55:47;5.40;99.90
10459;DHT22;5277;48.722;8.736;2023-04-03T00:58:16;5.30;99.90
10459;DHT22;5277;48.722;8.736;2023-04-03T01:00:44;5.30;99.90
10459;DHT22;5277;48.722;8.736;2023-04-03T01:03:11;5.20;99.90
10459;DHT22;5277;48.722;8.736;2023-04-03T01:05:37;5.20;99.90
10459;DHT22;5277;48.722;8.736;2023-04-03T01:08:03;5.30;99.90
10459;DHT22;5277;48.722;8.736;2023-04-03T01:10:29;5.20;99.90
10459;DHT22;5277;48.722;8.736;2023-04-03T01:12:54;5.10;99.90
10459;DHT22;5277;48.722;8.736;2023-04-03T01:15:26;5.10;99.90
10459;DHT22;5277;48.722;8.736;2023-04-03T01:17:54;5.10;99.90
10459;DHT22;5277;48.722;8.736;2023-04-03T01:25:50;5.10;99.90
10459;DHT22;5277;48.722;8.736;2023-04-03T01:28:25;5.00;99.90
10459;DHT22;5277;48.722;8.736;2023-04-03T01:33:47;5.10;99.90
10459;DHT22;5277;48.722;8.736;2023-04-03T01:36:16;5.10;99.90
10459;DHT22;5277;48.722;8.736;2023-04-03T01:38:42;5.10;99.90
10459;DHT22;5277;48.722;8.736;2023-04-03T01:41:08;5.10;99.90
10459;DHT22;5277;48.722;8.736;2023-04-03T01:43:33;5.20;99.90
10459;DHT22;5277;48.722;8.736;2023-04-03T01:45:59;5.00;99.90
10459;DHT22;5277;48.722;8.736;2023-04-03T01:48:25;5.00;99.90
10459;DHT22;5277;48.722;8.736;2023-04-03T01:50:50;5.10;99.90
10459;DHT22;5277;48.722;8.736;2023-04-03T01:53:16;5.00;99.90
10459;DHT22;5277;48.722;8.736;2023-04-03T01:55:41;5.00;99.90
10459;DHT22;5277;48.722;8.736;2023-04-03T01:58:07;5.00;99.90
10459;DHT22;5277;48.722;8.736;2023-04-03T02:00:33;5.00;99.90
10459;DHT22;5277;48.722;8.736;2023-04-03T02:02:58;4.90;99.90
10459;DHT22;5277;48.722;8.736;2023-04-03T02:05:24;4.90;99.90
10459;DHT22;5277;48.722;8.736;2023-04-03T02:07:50;4.90;99.90
10459;DHT22;5277;48.722;8.736;2023-04-03T02:10:16;4.90;99.90
10459;DHT22;5277;48.722;8.736;2023-04-03T02:12:41;4.90;99.90
10459;DHT22;5277;48.722;8.736;2023-04-03T02:15:07;4.90;99.90
10459;DHT22;5277;48.722;8.736;2023-04-03T02:17:33;4.90;99.90
10459;DHT22;5277;48.722;8.736;2023-04-03T02:20:00;4.90;99.90
10459;DHT22;5277;48.722;8.736;2023-04-03T02:22:25;4.90;99.90
10459;DHT22;5277;48.722;8.736;2023-04-03T02:24:51;4.90;99.90
10459;DHT22;5277;48.722;8.736;2023-04-03T02:27:17;4.80;99.90
10459;DHT22;5277;48.722;8.736;2023-04-03T02:29:42;4.90;99.90
10459;DHT22;5277;48.722;8.736;2023-04-03T02:32:08;4.90;99.90
10459;DHT22;5277;48.722;8.736;2023-04-03T02:34:34;4.80;99.90
10459;DHT22;5277;48.722;8.736;2023-04-03T02:36:59;4.80;99.90
10459;DHT22;5277;48.722;8.736;2023-04-03T02:39:25;4.80;99.90
10459;DHT22;5277;48.722;8.736;2023-04-03T02:41:51;4.80;99.90
10459;DHT22;5277;48.722;8.736;2023-04-03T02:44:17;4.80;99.90
10459;DHT22;5277;48.722;8.736;2023-04-03T02:46:43;4.80;99.90
10459;DHT22;5277;48.722;8.736;2023-04-03T02:49:08;4.80;99.90
10459;DHT22;5277;48.722;8.736;2023-04-03T02:51:34;4.80;99.90
10459;DHT22;5277;48.722;8.736;2023-04-03T02:53:59;4.80;99.90
10459;DHT22;5277;48.722;8.736;2023-04-03T02:56:26;4.80;99.90
10459;DHT22;5277;48.722;8.736;2023-04-03T02:58:52;4.80;99.90
10459;DHT22;5277;48.722;8.736;2023-04-03T03:01:18;4.80;99.90
10459;DHT22;5277;48.722;8.736;2023-04-03T03:03:43;4.80;99.90
10459;DHT22;5277;48.722;8.736;2023-04-03T03:06:12;4.80;99.90
10459;DHT22;5277;48.722;8.736;2023-04-03T03:08:38;4.70;99.90
10459;DHT22;5277;48.722;8.736;2023-04-03T03:11:04;4.80;99.90
10459;DHT22;5277;48.722;8.736;2023-04-03T03:13:30;4.80;99.90
10459;DHT22;5277;48.722;8.736;2023-04-03T03:15:56;4.80;99.90
10459;DHT22;5277;48.722;8.736;2023-04-03T03:18:22;4.80;99.90
10459;DHT22;5277;48.722;8.736;2023-04-03T03:20:52;4.70;99.90
10459;DHT22;5277;48.722;8.736;2023-04-03T03:23:21;4.70;99.90
10459;DHT22;5277;48.722;8.736;2023-04-03T03:25:47;4.70;99.90
10459;DHT22;5277;48.722;8.736;2023-04-03T03:28:12;4.70;99.90
10459;DHT22;5277;48.722;8.736;2023-04-03T03:30:38;4.60;99.90
10459;DHT22;5277;48.722;8.736;2023-04-03T03:33:04;4.60;99.90
10459;DHT22;5277;48.722;8.736;2023-04-03T03:35:29;4.50;99.90
10459;DHT22;5277;48.722;8.736;2023-04-03T03:37:55;4.50;99.90
10459;DHT22;5277;48.722;8.736;2023-04-03T03:40:21;4.50;99.90
10459;DHT22;5277;48.722;8.736;2023-04-03T03:42:46;4.50;99.90
10459;DHT22;5277;48.722;8.736;2023-04-03T03:45:12;4.50;99.90
10459;DHT22;5277;48.722;8.736;2023-04-03T03:47:37;4.50;99.90
10459;DHT22;5277;48.722;8.736;2023-04-03T03:50:03;4.40;99.90
10459;DHT22;5277;48.722;8.736;2023-04-03T03:52:29;4.50;99.90
10459;DHT22;5277;48.722;8.736;2023-04-03T03:54:55;4.50;99.90
10459;DHT22;5277;48.722;8.736;2023-04-03T03:57:21;4.50;99.90
10459;DHT22;5277;48.722;8.736;2023-04-03T03:59:47;4.50;99.90
10459;DHT22;5277;48.722;8.736;2023-04-03T04:02:14;4.60;99.90
10459;DHT22;5277;48.722;8.736;2023-04-03T04:04:39;4.50;99.90
10459;DHT22;5277;48.722;8.736;2023-04-03T04:07:05;4.40;99.90
10459;DHT22;5277;48.722;8.736;2023-04-03T04:09:31;4.50;99.90
10459;DHT22;5277;48.722;8.736;2023-04-03T04:11:56;4.60;99.90
10459;DHT22;5277;48.722;8.736;2023-04-03T04:14:22;4.50;99.90
10459;DHT22;5277;48.722;8.736;2023-04-03T04:16:48;4.60;99.90
10459;DHT22;5277;48.722;8.736;2023-04-03T04:19:14;4.60;99.90
10459;DHT22;5277;48.722;8.736;2023-04-03T04:21:39;4.50;99.90
10459;DHT22;5277;48.722;8.736;2023-04-03T04:24:09;4.60;99.90
10459;DHT22;5277;48.722;8.736;2023-04-03T04:26:37;4.50;99.90
10459;DHT22;5277;48.722;8.736;2023-04-03T04:29:03;4.50;99.90
10459;DHT22;5277;48.722;8.736;2023-04-03T04:31:28;4.50;99.90
10459;DHT22;5277;48.722;8.736;2023-04-03T04:33:54;4.50;99.90
10459;DHT22;5277;48.722;8.736;2023-04-03T04:36:20;4.50;99.90
10459;DHT22;5277;48.722;8.736;2023-04-03T04:38:45;4.50;99.90
10459;DHT22;5277;48.722;8.736;2023-04-03T04:41:11;4.50;99.90
10459;DHT22;5277;48.722;8.736;2023-04-03T04:43:37;4.50;99.90
10459;DHT22;5277;48.722;8.736;2023-04-03T04:46:03;4.60;99.90
10459;DHT22;5277;48.722;8.736;2023-04-03T04:48:29;4.60;99.90
10459;DHT22;5277;48.722;8.736;2023-04-03T04:50:55;4.50;99.90
10459;DHT22;5277;48.722;8.736;2023-04-03T04:53:21;4.50;99.90
10459;DHT22;5277;48.722;8.736;2023-04-03T04:55:46;4.50;99.90
10459;DHT22;5277;48.722;8.736;2023-04-03T04:58:12;4.60;99.90
10459;DHT22;5277;48.722;8.736;2023-04-03T05:00:38;4.50;99.90
10459;DHT22;5277;48.722;8.736;2023-04-03T05:03:03;4.60;99.90
10459;DHT22;5277;48.722;8.736;2023-04-03T05:05:29;4.60;99.90
10459;DHT22;5277;48.722;8.736;2023-04-03T05:07:54;4.60;99.90
10459;DHT22;5277;48.722;8.736;2023-04-03T05:10:20;4.60;99.90
10459;DHT22;5277;48.722;8.736;2023-04-03T05:12:46;4.50;99.90
10459;DHT22;5277;48.722;8.736;2023-04-03T05:15:11;4.60;99.90
10459;DHT22;5277;48.722;8.736;2023-04-03T05:17:37;4.60;99.90
10459;DHT22;5277;48.722;8.736;2023-04-03T05:20:04;4.60;99.90
10459;DHT22;5277;48.722;8.736;2023-04-03T05:22:30;4.60;99.90
10459;DHT22;5277;48.722;8.736;2023-04-03T05:24:56;4.60;99.90
10459;DHT22;5277;48.722;8.736;2023-04-03T05:27:21;4.60;99.90
10459;DHT22;5277;48.722;8.736;2023-04-03T05:29:49;4.60;99.90
10459;DHT22;5277;48.722;8.736;2023-04-03T05:32:15;4.60;99.90
10459;DHT22;5277;48.722;8.736;2023-04-03T05:34:40;4.60;99.90
10459;DHT22;5277;48.722;8.736;2023-04-03T05:37:06;4.60;99.90
10459;DHT22;5277;48.722;8.736;2023-04-03T05:39:31;4.60;99.90
10459;DHT22;5277;48.722;8.736;2023-04-03T05:41:57;4.70;99.90
10459;DHT22;5277;48.722;8.736;2023-04-03T05:44:23;4.70;99.90
10459;DHT22;5277;48.722;8.736;2023-04-03T05:46:48;4.70;99.90
10459;DHT22;5277;48.722;8.736;2023-04-03T05:49:14;4.80;99.90
10459;DHT22;5277;48.722;8.736;2023-04-03T05:51:40;4.80;99.90
10459;DHT22;5277;48.722;8.736;2023-04-03T05:54:13;4.80;99.90
10459;DHT22;5277;48.722;8.736;2023-04-03T05:56:40;4.90;99.90
10459;DHT22;5277;48.722;8.736;2023-04-03T05:59:06;5.00;99.90
10459;DHT22;5277;48.722;8.736;2023-04-03T06:01:32;5.00;99.90
10459;DHT22;5277;48.722;8.736;2023-04-03T06:03:59;5.10;99.90
10459;DHT22;5277;48.722;8.736;2023-04-03T06:06:25;5.10;99.90
10459;DHT22;5277;48.722;8.736;2023-04-03T06:08:51;5.10;99.90
10459;DHT22;5277;48.722;8.736;2023-04-03T06:11:17;5.10;99.90
10459;DHT22;5277;48.722;8.736;2023-04-03T06:13:42;5.20;99.90
10459;DHT22;5277;48.722;8.736;2023-04-03T06:16:12;5.20;99.90
10459;DHT22;5277;48.722;8.736;2023-04-03T06:18:39;5.20;99.90
10459;DHT22;5277;48.722;8.736;2023-04-03T06:21:05;5.20;99.90
10459;DHT22;5277;48.722;8.736;2023-04-03T06:23:33;5.20;99.90
10459;DHT22;5277;48.722;8.736;2023-04-03T06:25:58;5.30;99.90
10459;DHT22;5277;48.722;8.736;2023-04-03T06:28:24;5.20;99.90
10459;DHT22;5277;48.722;8.736;2023-04-03T06:30:49;5.20;99.90
10459;DHT22;5277;48.722;8.736;2023-04-03T06:33:15;5.10;99.90
10459;DHT22;5277;48.722;8.736;2023-04-03T06:35:40;5.10;99.80
10459;DHT22;5277;48.722;8.736;2023-04-03T06:38:06;5.10;99.20
10459;DHT22;5277;48.722;8.736;2023-04-03T06:40:34;5.10;98.80
10459;DHT22;5277;48.722;8.736;2023-04-03T06:43:01;5.10;99.40
10459;DHT22;5277;48.722;8.736;2023-04-03T06:45:27;5.20;99.70
10459;DHT22;5277;48.722;8.736;2023-04-03T06:47:53;5.30;99.40
10459;DHT22;5277;48.722;8.736;2023-04-03T06:50:18;5.40;99.00
10459;DHT22;5277;48.722;8.736;2023-04-03T06:52:44;5.60;99.00
10459;DHT22;5277;48.722;8.736;2023-04-03T06:55:10;5.60;98.00
10459;DHT22;5277;48.722;8.736;2023-04-03T06:57:36;5.70;97.40
10459;DHT22;5277;48.722;8.736;2023-04-03T07:00:05;5.80;97.30
10459;DHT22;5277;48.722;8.736;2023-04-03T07:02:32;5.90;98.20
10459;DHT22;5277;48.722;8.736;2023-04-03T07:04:58;6.10;97.80
10459;DHT22;5277;48.722;8.736;2023-04-03T07:07:23;6.20;97.70
10459;DHT22;5277;48.722;8.736;2023-04-03T07:09:49;6.30;97.60
10459;DHT22;5277;48.722;8.736;2023-04-03T07:12:15;6.40;96.80
10459;DHT22;5277;48.722;8.736;2023-04-03T07:14:41;6.50;96.60
10459;DHT22;5277;48.722;8.736;2023-04-03T07:17:06;6.50;95.90
10459;DHT22;5277;48.722;8.736;2023-04-03T07:19:32;6.50;96.70
10459;DHT22;5277;48.722;8.736;2023-04-03T07:21:58;6.60;97.20
10459;DHT22;5277;48.722;8.736;2023-04-03T07:24:23;6.60;96.10
10459;DHT22;5277;48.722;8.736;2023-04-03T07:26:50;6.70;96.00
10459;DHT22;5277;48.722;8.736;2023-04-03T07:29:18;6.80;95.70
10459;DHT22;5277;48.722;8.736;2023-04-03T07:31:45;6.70;95.80
10459;DHT22;5277;48.722;8.736;2023-04-03T07:34:11;6.80;95.70
10459;DHT22;5277;48.722;8.736;2023-04-03T07:36:36;6.80;95.30
10459;DHT22;5277;48.722;8.736;2023-04-03T07:39:03;6.80;95.80
10459;DHT22;5277;48.722;8.736;2023-04-03T07:41:28;6.90;95.30
10459;DHT22;5277;48.722;8.736;2023-04-03T07:43:55;6.90;94.80
10459;DHT22;5277;48.722;8.736;2023-04-03T07:46:22;7.00;95.20
10459;DHT22;5277;48.722;8.736;2023-04-03T07:48:48;7.00;95.40
10459;DHT22;5277;48.722;8.736;2023-04-03T07:51:13;7.10;95.40
10459;DHT22;5277;48.722;8.736;2023-04-03T07:53:39;7.20;95.60
10459;DHT22;5277;48.722;8.736;2023-04-03T07:56:05;7.40;95.30
10459;DHT22;5277;48.722;8.736;2023-04-03T07:58:30;7.30;95.70
10459;DHT22;5277;48.722;8.736;2023-04-03T08:00:56;7.20;95.10
10459;DHT22;5277;48.722;8.736;2023-04-03T08:03:22;7.20;95.80
10459;DHT22;5277;48.722;8.736;2023-04-03T08:05:49;7.10;94.90
10459;DHT22;5277;48.722;8.736;2023-04-03T08:08:20;7.20;95.50
10459;DHT22;5277;48.722;8.736;2023-04-03T08:10:53;7.30;95.50
10459;DHT22;5277;48.722;8.736;2023-04-03T08:13:19;7.30;95.20
10459;DHT22;5277;48.722;8.736;2023-04-03T08:15:45;7.40;95.20
10459;DHT22;5277;48.722;8.736;2023-04-03T08:18:12;7.60;95.20
10459;DHT22;5277;48.722;8.736;2023-04-03T08:20:38;7.60;95.10
10459;DHT22;5277;48.722;8.736;2023-04-03T08:23:06;7.60;94.90
10459;DHT22;5277;48.722;8.736;2023-04-03T08:25:33;7.90;95.10
10459;DHT22;5277;48.722;8.736;2023-04-03T08:28:01;7.60;93.90
10459;DHT22;5277;48.722;8.736;2023-04-03T08:30:28;7.80;95.00
10459;DHT22;5277;48.722;8.736;2023-04-03T08:32:54;8.00;95.10
10459;DHT22;5277;48.722;8.736;2023-04-03T08:35:19;8.10;93.80
10459;DHT22;5277;48.722;8.736;2023-04-03T08:37:45;8.20;94.50
10459;DHT22;5277;48.722;8.736;2023-04-03T08:40:16;8.10;93.60
10459;DHT22;5277;48.722;8.736;2023-04-03T08:43:00;7.90;93.10
10459;DHT22;5277;48.722;8.736;2023-04-03T08:45:49;7.70;94.40
10459;DHT22;5277;48.722;8.736;2023-04-03T08:48:20;7.60;94.60
10459;DHT22;5277;48.722;8.736;2023-04-03T08:50:50;7.50;93.90
10459;DHT22;5277;48.722;8.736;2023-04-03T08:53:29;7.40;95.70
10459;DHT22;5277;48.722;8.736;2023-04-03T08:55:58;7.50;95.30
10459;DHT22;5277;48.722;8.736;2023-04-03T08:58:28;7.60;94.70
10459;DHT22;5277;48.722;8.736;2023-04-03T09:01:01;7.70;95.10
10459;DHT22;5277;48.722;8.736;2023-04-03T09:03:31;7.70;95.00
10459;DHT22;5277;48.722;8.736;2023-04-03T09:06:07;7.90;95.00
10459;DHT22;5277;48.722;8.736;2023-04-03T09:08:47;8.10;94.00
10459;DHT22;5277;48.722;8.736;2023-04-03T09:11:25;8.10;93.40
10459;DHT22;5277;48.722;8.736;2023-04-03T09:16:56;8.30;93.50
10459;DHT22;5277;48.722;8.736;2023-04-03T09:21:48;8.50;93.10
10459;DHT22;5277;48.722;8.736;2023-04-03T09:24:16;8.50;94.00
10459;DHT22;5277;48.722;8.736;2023-04-03T09:29:15;8.60;93.40
10459;DHT22;5277;48.722;8.736;2023-04-03T09:31:44;8.50;93.20
10459;DHT22;5277;48.722;8.736;2023-04-03T09:39:17;8.70;92.70
10459;DHT22;5277;48.722;8.736;2023-04-03T09:42:04;8.70;92.00
10459;DHT22;5277;48.722;8.736;2023-04-03T09:44:34;8.70;93.30
10459;DHT22;5277;48.722;8.736;2023-04-03T09:47:27;8.60;91.50
10459;DHT22;5277;48.722;8.736;2023-04-03T09:52:38;8.30;92.20
10459;DHT22;5277;48.722;8.736;2023-04-03T09:55:17;8.40;91.80
10459;DHT22;5277;48.722;8.736;2023-04-03T09:57:45;8.70;92.10
10459;DHT22;5277;48.722;8.736;2023-04-03T10:00:34;8.90;90.70
10459;DHT22;5277;48.722;8.736;2023-04-03T10:03:00;8.90;91.90
10459;DHT22;5277;48.722;8.736;2023-04-03T10:05:43;9.00;90.60
10459;DHT22;5277;48.722;8.736;2023-04-03T10:10:42;8.90;92.40
10459;DHT22;5277;48.722;8.736;2023-04-03T10:13:18;8.60;89.70
10459;DHT22;5277;48.722;8.736;2023-04-03T10:16:07;8.50;90.50
10459;DHT22;5277;48.722;8.736;2023-04-03T10:24:08;8.20;90.20
10459;DHT22;5277;48.722;8.736;2023-04-03T10:26:45;8.40;91.30
10459;DHT22;5277;48.722;8.736;2023-04-03T10:29:23;8.50;88.50
10459;DHT22;5277;48.722;8.736;2023-04-03T10:31:53;8.50;85.10
10459;DHT22;5277;48.722;8.736;2023-04-03T10:34:30;8.50;88.60
10459;DHT22;5277;48.722;8.736;2023-04-03T10:42:22;9.10;90.90
10459;DHT22;5277;48.722;8.736;2023-04-03T10:48:11;10.00;81.80
10459;DHT22;5277;48.722;8.736;2023-04-03T10:50:52;10.00;82.20
10459;DHT22;5277;48.722;8.736;2023-04-03T10:58:58;9.70;84.60
10459;DHT22;5277;48.722;8.736;2023-04-03T11:01:38;9.40;83.40
10459;DHT22;5277;48.722;8.736;2023-04-03T11:04:06;9.10;85.50
10459;DHT22;5277;48.722;8.736;2023-04-03T11:06:41;8.90;83.90
10459;DHT22;5277;48.722;8.736;2023-04-03T11:09:28;8.70;83.10
10459;DHT22;5277;48.722;8.736;2023-04-03T11:12:06;8.60;86.40
10459;DHT22;5277;48.722;8.736;2023-04-03T11:14:36;8.60;86.30
10459;DHT22;5277;48.722;8.736;2023-04-03T11:19:48;8.60;85.80
10459;DHT22;5277;48.722;8.736;2023-04-03T11:27:57;8.60;87.50
10459;DHT22;5277;48.722;8.736;2023-04-03T11:30:32;8.70;86.80
10459;DHT22;5277;48.722;8.736;2023-04-03T11:33:28;8.50;86.90
10459;DHT22;5277;48.722;8.736;2023-04-03T11:36:04;8.50;84.40
10459;DHT22;5277;48.722;8.736;2023-04-03T11:38:42;8.50;86.10
10459;DHT22;5277;48.722;8.736;2023-04-03T11:41:09;8.40;86.00
10459;DHT22;5277;48.722;8.736;2023-04-03T11:43:41;8.40;84.90
10459;DHT22;5277;48.722;8.736;2023-04-03T11:46:09;8.40;86.60
10459;DHT22;5277;48.722;8.736;2023-04-03T11:53:39;8.30;86.60
10459;DHT22;5277;48.722;8.736;2023-04-03T11:56:27;8.40;87.50
10459;DHT22;5277;48.722;8.736;2023-04-03T12:01:57;8.40;86.50
10459;DHT22;5277;48.722;8.736;2023-04-03T12:04:26;8.50;85.60
10459;DHT22;5277;48.722;8.736;2023-04-03T12:07:16;8.50;84.80
10459;DHT22;5277;48.722;8.736;2023-04-03T12:12:41;8.70;85.60
10459;DHT22;5277;48.722;8.736;2023-04-03T12:15:23;8.50;80.90
10459;DHT22;5277;48.722;8.736;2023-04-03T12:17:49;8.60;85.30
10459;DHT22;5277;48.722;8.736;2023-04-03T12:23:34;8.60;80.00
10459;DHT22;5277;48.722;8.736;2023-04-03T12:26:27;8.50;86.60
10459;DHT22;5277;48.722;8.736;2023-04-03T12:28:55;8.50;84.30
10459;DHT22;5277;48.722;8.736;2023-04-03T12:31:25;8.50;85.10
10459;DHT22;5277;48.722;8.736;2023-04-03T12:39:54;8.50;87.70
10459;DHT22;5277;48.722;8.736;2023-04-03T12:42:35;8.20;86.30
10459;DHT22;5277;48.722;8.736;2023-04-03T12:45:20;8.10;87.10
10459;DHT22;5277;48.722;8.736;2023-04-03T12:47:48;8.20;88.30
10459;DHT22;5277;48.722;8.736;2023-04-03T12:50:30;8.20;85.30
10459;DHT22;5277;48.722;8.736;2023-04-03T12:53:04;8.30;86.60
10459;DHT22;5277;48.722;8.736;2023-04-03T12:55:30;8.40;88.40
10459;DHT22;5277;48.722;8.736;2023-04-03T12:57:56;8.50;87.20
10459;DHT22;5277;48.722;8.736;2023-04-03T13:00:32;8.50;84.40
10459;DHT22;5277;48.722;8.736;2023-04-03T13:02:59;8.60;85.90
10459;DHT22;5277;48.722;8.736;2023-04-03T13:05:26;8.70;84.10
10459;DHT22;5277;48.722;8.736;2023-04-03T13:07:59;8.80;84.20
10459;DHT22;5277;48.722;8.736;2023-04-03T13:10:25;8.80;83.50
10459;DHT22;5277;48.722;8.736;2023-04-03T13:12:54;8.80;82.90
10459;DHT22;5277;48.722;8.736;2023-04-03T13:15:26;8.80;79.70
10459;DHT22;5277;48.722;8.736;2023-04-03T13:17:53;8.70;82.50
10459;DHT22;5277;48.722;8.736;2023-04-03T13:22:58;8.60;82.70
10459;DHT22;5277;48.722;8.736;2023-04-03T13:25:29;8.50;83.90
10459;DHT22;5277;48.722;8.736;2023-04-03T13:27:58;8.60;79.10
10459;DHT22;5277;48.722;8.736;2023-04-03T13:32:53;8.70;81.90
10459;DHT22;5277;48.722;8.736;2023-04-03T13:35:39;8.80;81.40
10459;DHT22;5277;48.722;8.736;2023-04-03T13:38:27;8.90;80.70
10459;DHT22;5277;48.722;8.736;2023-04-03T13:40:56;9.00;74.10
10459;DHT22;5277;48.722;8.736;2023-04-03T13:43:27;8.90;78.80
10459;DHT22;5277;48.722;8.736;2023-04-03T13:48:46;8.90;80.30
10459;DHT22;5277;48.722;8.736;2023-04-03T13:53:49;8.90;75.70
10459;DHT22;5277;48.722;8.736;2023-04-03T13:56:31;8.70;76.20
10459;DHT22;5277;48.722;8.736;2023-04-03T13:58:59;8.50;76.10
10459;DHT22;5277;48.722;8.736;2023-04-03T14:01:32;8.60;78.00
10459;DHT22;5277;48.722;8.736;2023-04-03T14:04:09;8.70;79.90
10459;DHT22;5277;48.722;8.736;2023-04-03T14:06:35;8.80;78.60
10459;DHT22;5277;48.722;8.736;2023-04-03T14:09:01;8.80;78.40
10459;DHT22;5277;48.722;8.736;2023-04-03T14:11:29;8.90;81.40
10459;DHT22;5277;48.722;8.736;2023-04-03T14:13:58;9.00;80.20
10459;DHT22;5277;48.722;8.736;2023-04-03T14:16:27;8.90;78.00
10459;DHT22;5277;48.722;8.736;2023-04-03T14:18:55;8.90;74.50
10459;DHT22;5277;48.722;8.736;2023-04-03T14:21:22;8.90;78.70
10459;DHT22;5277;48.722;8.736;2023-04-03T14:23:48;8.80;75.60
10459;DHT22;5277;48.722;8.736;2023-04-03T14:26:23;8.70;79.50
10459;DHT22;5277;48.722;8.736;2023-04-03T14:28:51;8.80;78.00
10459;DHT22;5277;48.722;8.736;2023-04-03T14:31:18;8.70;77.20
10459;DHT22;5277;48.722;8.736;2023-04-03T14:33:44;8.80;78.40
10459;DHT22;5277;48.722;8.736;2023-04-03T14:36:18;8.80;78.90
10459;DHT22;5277;48.722;8.736;2023-04-03T14:38:45;8.90;80.30
10459;DHT22;5277;48.722;8.736;2023-04-03T14:41:13;8.90;75.00
10459;DHT22;5277;48.722;8.736;2023-04-03T14:43:39;8.90;80.20
10459;DHT22;5277;48.722;8.736;2023-04-03T14:46:05;8.90;79.40
10459;DHT22;5277;48.722;8.736;2023-04-03T14:48:31;8.90;78.90
10459;DHT22;5277;48.722;8.736;2023-04-03T14:50:56;8.80;78.20
10459;DHT22;5277;48.722;8.736;2023-04-03T14:53:22;8.90;77.00
10459;DHT22;5277;48.722;8.736;2023-04-03T14:55:50;8.90;72.00
10459;DHT22;5277;48.722;8.736;2023-04-03T14:58:19;8.70;72.00
10459;DHT22;5277;48.722;8.736;2023-04-03T15:00:45;8.70;74.40
10459;DHT22;5277;48.722;8.736;2023-04-03T15:03:19;8.80;74.70
10459;DHT22;5277;48.722;8.736;2023-04-03T15:05:46;8.80;77.90
10459;DHT22;5277;48.722;8.736;2023-04-03T15:08:24;8.80;72.80
10459;DHT22;5277;48.722;8.736;2023-04-03T15:10:51;8.80;74.10
10459;DHT22;5277;48.722;8.736;2023-04-03T15:13:21;8.80;75.80
10459;DHT22;5277;48.722;8.736;2023-04-03T15:15:47;8.90;75.10
10459;DHT22;5277;48.722;8.736;2023-04-03T15:18:24;8.70;74.20
10459;DHT22;5277;48.722;8.736;2023-04-03T15:20:52;8.70;77.00
10459;DHT22;5277;48.722;8.736;2023-04-03T15:23:18;8.70;76.90
10459;DHT22;5277;48.722;8.736;2023-04-03T15:25:46;8.70;78.40
10459;DHT22;5277;48.722;8.736;2023-04-03T15:28:28;8.50;73.50
10459;DHT22;5277;48.722;8.736;2023-04-03T15:30:55;8.50;78.30
10459;DHT22;5277;48.722;8.736;2023-04-03T15:33:21;8.50;79.40
10459;DHT22;5277;48.722;8.736;2023-04-03T15:35:46;8.40;80.10
10459;DHT22;5277;48.722;8.736;2023-04-03T15:38:12;8.40;80.70
10459;DHT22;5277;48.722;8.736;2023-04-03T15:40:38;8.40;81.80
10459;DHT22;5277;48.722;8.736;2023-04-03T15:43:05;8.30;81.70
10459;DHT22;5277;48.722;8.736;2023-04-03T15:45:31;8.10;74.00
10459;DHT22;5277;48.722;8.736;2023-04-03T15:47:57;8.00;76.40
10459;DHT22;5277;48.722;8.736;2023-04-03T15:50:23;8.00;81.40
10459;DHT22;5277;48.722;8.736;2023-04-03T15:52:50;7.80;79.20
10459;DHT22;5277;48.722;8.736;2023-04-03T15:55:26;7.80;82.70
10459;DHT22;5277;48.722;8.736;2023-04-03T15:57:53;7.80;80.60
10459;DHT22;5277;48.722;8.736;2023-04-03T16:00:19;7.80;82.40
10459;DHT22;5277;48.722;8.736;2023-04-03T16:02:46;7.80;80.60
10459;DHT22;5277;48.722;8.736;2023-04-03T16:05:13;7.70;79.60
10459;DHT22;5277;48.722;8.736;2023-04-03T16:07:40;7.70;82.90
10459;DHT22;5277;48.722;8.736;2023-04-03T16:10:07;7.70;78.60
10459;DHT22;5277;48.722;8.736;2023-04-03T16:12:33;7.70;82.20
10459;DHT22;5277;48.722;8.736;2023-04-03T16:14:59;7.70;80.70
10459;DHT22;5277;48.722;8.736;2023-04-03T16:17:26;7.60;79.90
10459;DHT22;5277;48.722;8.736;2023-04-03T16:19:53;7.60;80.90
10459;DHT22;5277;48.722;8.736;2023-04-03T16:22:19;7.50;80.90
10459;DHT22;5277;48.722;8.736;2023-04-03T16:24:45;7.50;81.20
10459;DHT22;5277;48.722;8.736;2023-04-03T16:27:10;7.50;80.50
10459;DHT22;5277;48.722;8.736;2023-04-03T16:29:36;7.60;80.70
10459;DHT22;5277;48.722;8.736;2023-04-03T16:32:02;7.60;80.60
10459;DHT22;5277;48.722;8.736;2023-04-03T16:34:27;7.60;81.50
10459;DHT22;5277;48.722;8.736;2023-04-03T16:36:55;7.60;81.90
10459;DHT22;5277;48.722;8.736;2023-04-03T16:39:21;7.60;82.80
10459;DHT22;5277;48.722;8.736;2023-04-03T16:41:46;7.70;81.10
10459;DHT22;5277;48.722;8.736;2023-04-03T16:44:12;7.60;81.50
10459;DHT22;5277;48.722;8.736;2023-04-03T16:46:40;7.60;84.10
10459;DHT22;5277;48.722;8.736;2023-04-03T16:49:05;7.60;81.00
10459;DHT22;5277;48.722;8.736;2023-04-03T16:51:31;7.60;84.70
10459;DHT22;5277;48.722;8.736;2023-04-03T16:53:57;7.50;84.20
10459;DHT22;5277;48.722;8.736;2023-04-03T16:56:23;7.40;76.60
10459;DHT22;5277;48.722;8.736;2023-04-03T16:58:48;7.30;79.00
10459;DHT22;5277;48.722;8.736;2023-04-03T17:01:16;7.10;83.20
10459;DHT22;5277;48.722;8.736;2023-04-03T17:03:42;7.10;87.90
10459;DHT22;5277;48.722;8.736;2023-04-03T17:06:08;7.00;88.00
10459;DHT22;5277;48.722;8.736;2023-04-03T17:08:44;6.90;87.80
10459;DHT22;5277;48.722;8.736;2023-04-03T17:11:10;6.80;88.60
10459;DHT22;5277;48.722;8.736;2023-04-03T17:13:36;6.70;89.00
10459;DHT22;5277;48.722;8.736;2023-04-03T17:16:04;6.60;89.80
10459;DHT22;5277;48.722;8.736;2023-04-03T17:18:32;6.60;89.80
10459;DHT22;5277;48.722;8.736;2023-04-03T17:20:59;6.50;89.70
10459;DHT22;5277;48.722;8.736;2023-04-03T17:23:25;6.50;82.40
10459;DHT22;5277;48.722;8.736;2023-04-03T17:25:53;6.60;88.30
10459;DHT22;5277;48.722;8.736;2023-04-03T17:28:20;6.70;90.10
10459;DHT22;5277;48.722;8.736;2023-04-03T17:30:47;6.60;90.60
10459;DHT22;5277;48.722;8.736;2023-04-03T17:33:13;6.50;89.70
10459;DHT22;5277;48.722;8.736;2023-04-03T17:35:38;6.40;90.40